Terminal Aerodrome Forecast
Issued by NWS

Home | Current Version | Previous Version | Text Only | Print | Product List | Glossary On
Versions: 1 2 3 4 5 6 7 8 9 10 11 12 13 14
000
FTUS44 KSJT 311120
TAFSOA
TAF
KSOA 311120Z 3112/0112 VRB03KT P6SM FEW120 FEW250
     FM311800 17008KT P6SM SCT070
     FM010000 16006KT P6SM SKC=

USA.gov is the U.S. government's official web portal to all federal, state and local government web resources and services.